Time;durP1;ratioP1;P1;durP2;ratioP2;P2;SDS_P1;SDS_P2;PMS_P1;PMS_P2;Temp;Humidity;BMP_temperature;BMP_pressure;BME280_temperature;BME280_humidity;BME280_pressure;Samples;Min_cycle;Max_cycle;Signal;HPM_P1;HPM_P2
2023/10/15 00:01:57;;;;;;;;;;;;;;;26.82;38.80;100454.44;5098831;28;1062;-26
2023/10/15 00:04:23;;;;;;;;;;;;;;;26.77;38.64;100451.47;5096296;28;1233;-24
2023/10/15 00:06:48;;;;;;;;;;;;;;;26.78;38.69;100448.56;5088448;28;1103;-25
2023/10/15 00:09:14;;;;;;;;;;;;;;;26.79;38.99;100444.03;5094894;28;1145;-24
2023/10/15 00:11:40;;;;;;;;;;;;;;;26.85;38.66;100439.72;5098613;28;1902;-27
2023/10/15 00:14:06;;;;;;;;;;;;;;;26.84;38.76;100440.75;5085039;28;1185;-24
2023/10/15 00:16:34;;;;;;;;;;;;;;;26.76;38.76;100436.28;5083128;28;964;-29
2023/10/15 00:19:09;;;;;;;;;;;;;;;26.68;39.09;100434.53;5092360;28;1226;-27
2023/10/15 00:21:35;;;;;;;;;;;;;;;26.81;38.92;100433.03;5078307;28;1098;-26
2023/10/15 00:24:01;;;;;;;;;;;;;;;26.72;38.92;100430.44;5092293;28;1155;-29
2023/10/15 00:26:27;;;;;;;;;;;;;;;26.60;39.36;100432.78;5089173;28;1129;-29
2023/10/15 00:28:54;;;;;;;;;;;;;;;26.75;39.11;100431.91;5085068;28;1035;-28
2023/10/15 00:31:19;;;;;;;;;;;;;;;26.56;39.24;100427.94;5086715;28;1906;-25
2023/10/15 00:33:48;;;;;;;;;;;;;;;26.64;38.98;100422.44;5079993;28;1226;-25
2023/10/15 00:36:14;;;;;;;;;;;;;;;26.68;39.08;100409.41;5077937;28;1063;-25
2023/10/15 00:38:43;;;;;;;;;;;;;;;26.65;39.16;100413.31;5073187;28;1040;-27
2023/10/15 00:41:09;;;;;;;;;;;;;;;26.75;39.06;100408.47;5096213;28;988;-24
2023/10/15 00:43:35;;;;;;;;;;;;;;;26.72;38.88;100405.31;5098236;28;1075;-26
2023/10/15 00:46:03;;;;;;;;;;;;;;;26.78;38.56;100402.69;5085904;28;1035;-25
2023/10/15 00:48:33;;;;;;;;;;;;;;;26.59;39.38;100397.91;5095947;28;1154;-26
2023/10/15 00:51:08;;;;;;;;;;;;;;;26.65;39.36;100394.44;5053199;28;1147;-27
2023/10/15 00:53:34;;;;;;;;;;;;;;;26.61;38.94;100382.38;5074376;28;1127;-27
2023/10/15 00:56:08;;;;;;;;;;;;;;;26.78;38.84;100383.81;5078142;28;1088;-25
2023/10/15 00:58:39;;;;;;;;;;;;;;;26.72;39.01;100381.03;5087331;28;1023;-24
2023/10/15 01:03:48;;;;;;;;;;;;;;;26.58;39.27;100382.72;5091752;28;1094;-25
2023/10/15 01:08:52;;;;;;;;;;;;;;;26.57;39.44;100365.72;5083563;28;1135;-27
2023/10/15 01:11:18;;;;;;;;;;;;;;;26.75;38.70;100372.56;5094756;28;1910;-26
2023/10/15 01:13:43;;;;;;;;;;;;;;;26.73;38.94;100378.13;5073397;28;1225;-25
2023/10/15 01:16:10;;;;;;;;;;;;;;;26.59;39.30;100373.63;5096541;28;894;-25
2023/10/15 01:18:36;;;;;;;;;;;;;;;26.78;38.64;100369.47;5096502;28;1058;-27
2023/10/15 01:21:04;;;;;;;;;;;;;;;26.61;38.99;100341.91;5084353;28;1206;-24
2023/10/15 01:23:32;;;;;;;;;;;;;;;26.78;38.67;100370.31;5083112;28;999;-25
2023/10/15 01:25:59;;;;;;;;;;;;;;;26.78;38.56;100373.00;5096783;28;1042;-27
2023/10/15 01:28:36;;;;;;;;;;;;;;;26.64;39.17;100369.31;5089663;28;1051;-24
2023/10/15 01:31:05;;;;;;;;;;;;;;;26.68;38.72;100369.78;5079458;28;1236;-27
2023/10/15 01:33:31;;;;;;;;;;;;;;;26.62;38.99;100370.53;5083329;28;1046;-24
2023/10/15 01:36:06;;;;;;;;;;;;;;;26.72;38.76;100373.78;5069728;28;1107;-25
2023/10/15 01:38:34;;;;;;;;;;;;;;;26.55;38.76;100378.53;5080488;28;1090;-27
2023/10/15 01:41:04;;;;;;;;;;;;;;;26.60;38.99;100368.03;5094426;28;890;-26
2023/10/15 01:43:32;;;;;;;;;;;;;;;26.69;39.08;100371.47;5083151;28;1091;-26
2023/10/15 01:45:59;;;;;;;;;;;;;;;26.60;39.06;100369.88;5097058;28;1113;-24
2023/10/15 01:48:25;;;;;;;;;;;;;;;26.57;39.32;100373.81;5082889;28;1141;-26
2023/10/15 01:50:51;;;;;;;;;;;;;;;26.72;38.95;100373.78;5078797;28;1099;-26
2023/10/15 01:53:16;;;;;;;;;;;;;;;26.55;39.25;100367.75;5081489;28;1906;-26
2023/10/15 01:55:54;;;;;;;;;;;;;;;26.57;39.09;100364.88;5076571;28;1035;-25
2023/10/15 01:58:24;;;;;;;;;;;;;;;26.66;39.00;100363.72;5065916;28;1151;-27
2023/10/15 02:00:50;;;;;;;;;;;;;;;26.60;39.29;100369.88;5064125;28;1243;-22
2023/10/15 02:03:16;;;;;;;;;;;;;;;26.48;39.17;100364.13;5083561;28;1051;-26
2023/10/15 02:05:41;;;;;;;;;;;;;;;26.72;38.78;100368.38;5074294;28;1122;-27
2023/10/15 02:08:13;;;;;;;;;;;;;;;26.51;39.03;100356.50;5063655;28;1170;-24
2023/10/15 02:10:40;;;;;;;;;;;;;;;26.34;39.63;100353.16;5085828;28;1079;-25
2023/10/15 02:13:10;;;;;;;;;;;;;;;26.39;39.46;100349.94;5078158;28;1909;-24
2023/10/15 02:15:40;;;;;;;;;;;;;;;26.47;39.41;100343.59;5052006;28;1194;-26
2023/10/15 02:18:08;;;;;;;;;;;;;;;26.64;39.17;100342.34;5044585;28;1194;-26
2023/10/15 02:23:18;;;;;;;;;;;;;;;26.62;38.92;100351.66;5088473;28;1180;-28
2023/10/15 02:25:46;;;;;;;;;;;;;;;26.63;39.04;100346.06;5065040;28;1139;-27
2023/10/15 02:28:20;;;;;;;;;;;;;;;26.52;39.13;100342.00;5091585;28;1140;-24
2023/10/15 02:30:48;;;;;;;;;;;;;;;26.52;39.29;100347.41;5082544;28;991;-27
2023/10/15 02:33:17;;;;;;;;;;;;;;;26.53;39.15;100351.75;5082325;28;1981;-25
2023/10/15 02:35:45;;;;;;;;;;;;;;;26.63;39.04;100351.47;5084688;28;1226;-27
2023/10/15 02:38:11;;;;;;;;;;;;;;;26.44;39.32;100352.06;5094307;28;1141;-24
2023/10/15 02:43:23;;;;;;;;;;;;;;;26.37;39.33;100343.88;5071637;28;1456;-27
2023/10/15 02:45:48;;;;;;;;;;;;;;;26.46;39.18;100348.13;5086619;28;1055;-26
2023/10/15 02:48:19;;;;;;;;;;;;;;;26.53;39.20;100345.53;5092456;28;1031;-26
2023/10/15 02:51:35;;;;;;;;;;;;;;;26.45;39.19;100346.47;5069220;28;2045;-28
2023/10/15 02:53:39;;;;;;;;;;;;;;;26.36;39.30;100339.53;5072873;28;1196;-28
2023/10/15 02:56:10;;;;;;;;;;;;;;;26.26;39.61;100339.75;5077459;28;1046;-25
2023/10/15 02:58:36;;;;;;;;;;;;;;;26.35;38.79;100300.94;5096077;28;1086;-27
2023/10/15 03:01:24;;;;;;;;;;;;;;;26.41;39.28;100335.22;5061007;28;1261;-27
2023/10/15 03:03:49;;;;;;;;;;;;;;;26.40;39.20;100322.78;5069508;28;1405;-23
2023/10/15 03:06:25;;;;;;;;;;;;;;;26.36;39.28;100317.94;5058847;28;1083;-25
2023/10/15 03:08:51;;;;;;;;;;;;;;;26.42;39.34;100317.19;5089087;28;1135;-26
2023/10/15 03:11:19;;;;;;;;;;;;;;;26.29;39.29;100275.50;5077523;28;1976;-25
2023/10/15 03:13:54;;;;;;;;;;;;;;;26.45;39.17;100303.31;5098691;28;1046;-27
2023/10/15 03:16:24;;;;;;;;;;;;;;;26.74;38.71;100314.22;5079157;28;2609;-26
2023/10/15 03:18:50;;;;;;;;;;;;;;;26.57;39.28;100316.31;5094417;28;2051;-25
2023/10/15 03:21:25;;;;;;;;;;;;;;;25.87;38.60;100287.81;5082943;28;2162;-26
2023/10/15 03:23:55;;;;;;;;;;;;;;;25.32;40.31;100286.16;5069509;28;1892;-27
2023/10/15 03:26:22;;;;;;;;;;;;;;;25.17;40.63;100311.16;5055655;28;2139;-28
2023/10/15 03:28:51;;;;;;;;;;;;;;;24.98;40.42;100300.88;5088224;28;2169;-30
2023/10/15 03:31:17;;;;;;;;;;;;;;;24.89;40.17;100270.50;5067659;28;1905;-26
2023/10/15 03:33:59;;;;;;;;;;;;;;;24.93;40.87;100298.75;5076933;28;1293;-26
2023/10/15 03:36:25;;;;;;;;;;;;;;;25.12;40.28;100307.34;5085404;28;1027;-27
2023/10/15 03:38:50;;;;;;;;;;;;;;;25.18;39.86;100307.47;5091195;28;999;-25
2023/10/15 03:41:22;;;;;;;;;;;;;;;25.07;40.35;100308.72;5084857;28;1095;-26
2023/10/15 03:43:48;;;;;;;;;;;;;;;24.69;41.39;100314.00;5078716;28;1055;-25
2023/10/15 03:46:19;;;;;;;;;;;;;;;23.58;44.43;100308.31;5079953;28;1024;-26
2023/10/15 03:48:50;;;;;;;;;;;;;;;23.22;45.11;100308.66;5089780;28;1015;-28
2023/10/15 03:51:20;;;;;;;;;;;;;;;23.16;45.07;100311.97;5081825;28;2002;-25
2023/10/15 03:53:49;;;;;;;;;;;;;;;24.31;42.85;100312.00;5076288;28;1218;-31
2023/10/15 03:56:19;;;;;;;;;;;;;;;25.27;40.76;100308.25;5093710;28;1040;-27
2023/10/15 03:58:45;;;;;;;;;;;;;;;25.17;38.54;100299.56;5073938;28;1178;-25
2023/10/15 04:01:17;;;;;;;;;;;;;;;25.35;38.77;100307.34;5072576;28;2226;-28
2023/10/15 04:03:48;;;;;;;;;;;;;;;24.23;41.66;100296.75;5084160;28;888;-32
2023/10/15 04:06:17;;;;;;;;;;;;;;;24.27;41.40;100297.25;5087698;28;858;-27
2023/10/15 04:11:30;;;;;;;;;;;;;;;24.39;41.09;100293.13;5097926;28;1952;-29
2023/10/15 04:14:11;;;;;;;;;;;;;;;24.50;41.35;100291.94;5089183;28;1462;-27
2023/10/15 04:16:37;;;;;;;;;;;;;;;24.53;41.39;100288.88;5092376;28;1088;-29
2023/10/15 04:19:03;;;;;;;;;;;;;;;24.68;40.85;100288.09;5089038;28;1108;-29
2023/10/15 04:21:28;;;;;;;;;;;;;;;24.73;41.07;100284.88;5068709;28;1136;-24
2023/10/15 04:23:56;;;;;;;;;;;;;;;25.16;39.56;100287.13;5076143;28;1074;-30
2023/10/15 04:26:26;;;;;;;;;;;;;;;24.95;40.40;100291.34;5089878;28;1233;-27
2023/10/15 04:28:53;;;;;;;;;;;;;;;24.39;40.85;100292.31;5079128;28;1432;-28
2023/10/15 04:31:24;;;;;;;;;;;;;;;23.96;40.68;100288.94;5059588;28;2191;-27
2023/10/15 04:33:52;;;;;;;;;;;;;;;24.58;40.44;100291.88;5068935;28;878;-28
2023/10/15 04:36:18;;;;;;;;;;;;;;;25.32;38.98;100288.84;5081230;28;1074;-25
2023/10/15 04:38:44;;;;;;;;;;;;;;;25.71;38.24;100294.25;5076135;28;1126;-26
2023/10/15 04:41:21;;;;;;;;;;;;;;;25.72;37.89;100285.13;5091558;28;1075;-24
2023/10/15 04:43:47;;;;;;;;;;;;;;;25.83;37.56;100289.22;5085621;28;1110;-26
2023/10/15 04:46:17;;;;;;;;;;;;;;;25.60;37.55;100269.41;5096505;28;1031;-27
2023/10/15 04:48:46;;;;;;;;;;;;;;;25.75;37.65;100285.59;5097226;28;1034;-25
2023/10/15 04:51:14;;;;;;;;;;;;;;;25.64;37.60;100286.06;5083518;28;1024;-26
2023/10/15 04:53:49;;;;;;;;;;;;;;;25.71;37.71;100286.16;5090749;28;1042;-26
2023/10/15 04:56:14;;;;;;;;;;;;;;;25.73;37.74;100286.78;5073203;28;1060;-25
2023/10/15 04:58:40;;;;;;;;;;;;;;;26.06;37.18;100286.41;5083019;28;1130;-27
2023/10/15 05:01:06;;;;;;;;;;;;;;;25.78;38.19;100285.22;5084414;28;2570;-28
2023/10/15 05:03:32;;;;;;;;;;;;;;;26.11;37.24;100285.88;5097239;28;1022;-27
2023/10/15 05:06:01;;;;;;;;;;;;;;;26.19;36.98;100277.69;5096446;28;1303;-30
2023/10/15 05:08:26;;;;;;;;;;;;;;;26.23;37.17;100278.13;5071795;28;1368;-27
2023/10/15 05:10:52;;;;;;;;;;;;;;;26.09;38.00;100277.94;5097313;28;1102;-31
2023/10/15 05:13:18;;;;;;;;;;;;;;;26.24;37.81;100277.13;5094198;28;1918;-26
2023/10/15 05:15:47;;;;;;;;;;;;;;;26.36;37.78;100280.19;5086892;28;1100;-26
2023/10/15 05:18:13;;;;;;;;;;;;;;;26.34;37.92;100277.66;5090182;28;1070;-27
2023/10/15 05:20:38;;;;;;;;;;;;;;;26.31;38.42;100282.59;5083351;28;1067;-28
2023/10/15 05:23:04;;;;;;;;;;;;;;;26.49;37.83;100271.41;5086729;28;1155;-24
2023/10/15 05:25:30;;;;;;;;;;;;;;;26.55;37.89;100276.03;5093658;28;1040;-26
2023/10/15 05:27:55;;;;;;;;;;;;;;;26.20;38.88;100275.81;5097041;28;1089;-29
2023/10/15 05:30:21;;;;;;;;;;;;;;;25.97;39.21;100277.63;5082605;28;2351;-25
2023/10/15 05:32:48;;;;;;;;;;;;;;;26.34;38.59;100272.28;5077476;28;1906;-28
2023/10/15 05:35:14;;;;;;;;;;;;;;;26.61;38.14;100269.06;5079088;28;1234;-25
2023/10/15 05:37:42;;;;;;;;;;;;;;;26.28;38.40;100279.25;5073876;28;1269;-27
2023/10/15 05:40:08;;;;;;;;;;;;;;;26.21;37.96;100277.50;5096984;28;1006;-28
2023/10/15 05:42:34;;;;;;;;;;;;;;;26.28;38.94;100279.25;5089648;28;1055;-26
2023/10/15 05:45:00;;;;;;;;;;;;;;;26.29;39.08;100280.91;5085371;28;1130;-30
2023/10/15 05:47:25;;;;;;;;;;;;;;;25.37;35.72;100274.84;5080411;28;1074;-28
2023/10/15 05:49:53;;;;;;;;;;;;;;;25.42;34.89;100269.75;5096689;28;995;-28
2023/10/15 05:52:19;;;;;;;;;;;;;;;25.37;35.07;100269.47;5091285;28;1972;-28
2023/10/15 05:54:46;;;;;;;;;;;;;;;25.76;34.25;100262.16;5064782;28;1304;-27
2023/10/15 05:57:12;;;;;;;;;;;;;;;26.26;36.38;100272.34;5095425;28;1036;-25
2023/10/15 05:59:37;;;;;;;;;;;;;;;26.43;37.65;100264.06;5095949;28;1042;-26
2023/10/15 06:02:04;;;;;;;;;;;;;;;26.56;37.88;100264.22;5077393;28;1102;-25
2023/10/15 06:04:30;;;;;;;;;;;;;;;25.22;37.42;100275.66;5076127;28;1115;-26
2023/10/15 06:06:55;;;;;;;;;;;;;;;24.27;38.31;100259.63;5079817;28;1059;-28
2023/10/15 06:09:21;;;;;;;;;;;;;;;24.04;37.25;100260.38;5096283;28;1079;-27
2023/10/15 06:11:46;;;;;;;;;;;;;;;23.78;37.60;100262.28;5066466;28;1968;-26
2023/10/15 06:14:12;;;;;;;;;;;;;;;24.83;37.34;100266.66;5075785;28;1023;-27
2023/10/15 06:16:39;;;;;;;;;;;;;;;25.75;38.21;100253.28;5093410;28;1183;-27
2023/10/15 06:19:04;;;;;;;;;;;;;;;25.99;39.12;100248.59;5088783;28;888;-27
2023/10/15 06:21:30;;;;;;;;;;;;;;;25.50;41.02;100255.34;5075964;28;1039;-25
2023/10/15 06:23:55;;;;;;;;;;;;;;;25.15;42.21;100264.78;5069046;28;1337;-30
2023/10/15 06:26:21;;;;;;;;;;;;;;;25.63;41.39;100263.66;5071438;28;1229;-28
2023/10/15 06:28:47;;;;;;;;;;;;;;;25.97;40.90;100268.69;5088063;28;1000;-34
2023/10/15 06:31:12;;;;;;;;;;;;;;;26.14;40.47;100269.31;5090960;28;1166;-26
2023/10/15 06:33:40;;;;;;;;;;;;;;;26.16;40.41;100265.41;5096419;28;1901;-28
2023/10/15 06:36:06;;;;;;;;;;;;;;;26.22;40.37;100268.38;5090728;28;1058;-29
2023/10/15 06:38:31;;;;;;;;;;;;;;;26.53;39.34;100264.59;5075549;28;1011;-30
2023/10/15 06:40:57;;;;;;;;;;;;;;;26.55;39.67;100253.63;5089994;28;1024;-26
2023/10/15 06:43:23;;;;;;;;;;;;;;;26.57;39.56;100260.50;5089914;28;888;-28
2023/10/15 06:45:51;;;;;;;;;;;;;;;26.57;39.25;100265.06;5078692;28;1356;-27
2023/10/15 06:48:17;;;;;;;;;;;;;;;26.73;38.81;100262.13;5080856;28;1539;-28
2023/10/15 06:50:42;;;;;;;;;;;;;;;26.74;38.77;100260.25;5093736;28;1233;-28
2023/10/15 06:53:08;;;;;;;;;;;;;;;26.86;38.59;100258.69;5095809;28;1910;-26
2023/10/15 06:55:35;;;;;;;;;;;;;;;26.80;38.71;100256.78;5078092;28;1119;-27
2023/10/15 06:58:01;;;;;;;;;;;;;;;26.83;39.16;100248.31;5066729;28;1090;-28
2023/10/15 07:00:27;;;;;;;;;;;;;;;26.84;38.63;100257.25;5075743;28;1427;-29
2023/10/15 07:02:53;;;;;;;;;;;;;;;26.94;38.37;100256.91;5075919;28;1047;-27
2023/10/15 07:05:23;;;;;;;;;;;;;;;26.93;38.58;100255.22;5075963;28;1123;-29
2023/10/15 07:07:49;;;;;;;;;;;;;;;26.53;39.11;100248.41;5076108;28;1193;-25
2023/10/15 07:10:17;;;;;;;;;;;;;;;26.40;36.29;100243.72;5076208;28;1058;-25
2023/10/15 07:12:43;;;;;;;;;;;;;;;26.49;37.31;100242.56;5075770;28;1918;-26
2023/10/15 07:15:09;;;;;;;;;;;;;;;26.99;37.28;100240.97;5075744;28;1115;-26
2023/10/15 07:17:38;;;;;;;;;;;;;;;27.21;37.13;100243.69;5075817;28;1059;-27
2023/10/15 07:20:05;;;;;;;;;;;;;;;27.05;37.51;100236.69;5075682;28;1225;-26
2023/10/15 07:22:31;;;;;;;;;;;;;;;26.49;35.32;100230.97;5075714;28;1059;-28
2023/10/15 07:24:56;;;;;;;;;;;;;;;26.76;36.28;100225.81;5075737;28;1095;-29
2023/10/15 07:27:22;;;;;;;;;;;;;;;27.06;35.99;100231.06;5086215;28;1154;-26
2023/10/15 07:29:48;;;;;;;;;;;;;;;27.38;35.62;100228.00;5075579;28;1123;-27
2023/10/15 07:32:13;;;;;;;;;;;;;;;27.16;36.00;100219.13;5075238;28;1980;-26
2023/10/15 07:34:39;;;;;;;;;;;;;;;27.30;36.17;100223.59;5075360;28;1046;-27
2023/10/15 07:37:04;;;;;;;;;;;;;;;27.24;35.75;100227.06;5075408;28;1127;-27
2023/10/15 07:39:31;;;;;;;;;;;;;;;27.45;35.64;100219.94;5085239;28;1118;-28
2023/10/15 07:41:57;;;;;;;;;;;;;;;27.28;36.04;100224.81;5065896;28;1186;-26
2023/10/15 07:44:22;;;;;;;;;;;;;;;27.41;35.95;100222.19;5063782;28;1304;-25
2023/10/15 07:46:52;;;;;;;;;;;;;;;27.51;35.56;100219.13;5068580;28;1621;-26
2023/10/15 07:49:18;;;;;;;;;;;;;;;27.49;34.87;100213.94;5071731;28;1043;-27
2023/10/15 07:51:44;;;;;;;;;;;;;;;27.24;35.44;100202.78;5075378;28;1917;-25
2023/10/15 07:54:09;;;;;;;;;;;;;;;27.43;34.83;100214.72;5075765;28;1094;-26
2023/10/15 07:56:35;;;;;;;;;;;;;;;27.30;35.61;100203.84;5072601;28;1433;-26
2023/10/15 07:59:04;;;;;;;;;;;;;;;27.58;35.18;100205.66;5047803;28;1052;-25
2023/10/15 08:01:30;;;;;;;;;;;;;;;27.43;34.82;100206.63;5056172;28;1446;-30
2023/10/15 08:03:59;;;;;;;;;;;;;;;27.43;35.47;100203.91;5072758;28;1163;-27
2023/10/15 08:06:25;;;;;;;;;;;;;;;26.97;35.88;100197.97;5069491;28;1067;-27
2023/10/15 08:08:50;;;;;;;;;;;;;;;27.15;35.69;100193.97;5074644;28;1747;-24
2023/10/15 08:11:16;;;;;;;;;;;;;;;26.37;34.75;100190.16;5079156;28;1136;-25
2023/10/15 08:13:41;;;;;;;;;;;;;;;25.95;34.71;100195.25;5078449;28;1914;-26
2023/10/15 08:16:07;;;;;;;;;;;;;;;26.22;33.38;100195.59;5079198;28;1058;-27
2023/10/15 08:18:33;;;;;;;;;;;;;;;25.96;33.09;100189.69;5078764;28;1114;-27
2023/10/15 08:20:58;;;;;;;;;;;;;;;26.13;33.00;100190.31;5069631;28;1496;-26
2023/10/15 08:23:24;;;;;;;;;;;;;;;26.36;33.05;100191.22;5069701;28;1264;-30
2023/10/15 08:25:49;;;;;;;;;;;;;;;25.54;33.59;100195.53;5063744;28;1413;-27
2023/10/15 08:28:15;;;;;;;;;;;;;;;25.62;33.44;100191.09;5068738;28;866;-28
2023/10/15 08:30:41;;;;;;;;;;;;;;;26.64;34.77;100182.34;5078035;28;1116;-27
2023/10/15 08:33:12;;;;;;;;;;;;;;;26.93;33.94;100169.69;5078278;28;1937;-28
2023/10/15 08:35:37;;;;;;;;;;;;;;;27.37;33.49;100175.00;5065321;28;1561;-26
2023/10/15 08:38:03;;;;;;;;;;;;;;;27.38;33.97;100172.13;5059372;28;1171;-27
2023/10/15 08:40:30;;;;;;;;;;;;;;;27.51;33.54;100168.66;5075068;28;1476;-27
2023/10/15 08:42:59;;;;;;;;;;;;;;;27.54;33.71;100177.38;5070466;28;1143;-29
2023/10/15 08:45:24;;;;;;;;;;;;;;;27.50;33.85;100166.16;5069881;28;1227;-26
2023/10/15 08:47:50;;;;;;;;;;;;;;;27.58;34.05;100173.25;5060438;28;1126;-26
2023/10/15 08:50:21;;;;;;;;;;;;;;;26.82;32.70;100159.44;5073379;28;1044;-30
2023/10/15 08:52:48;;;;;;;;;;;;;;;27.26;34.04;100169.13;5040487;28;1918;-28
2023/10/15 08:55:13;;;;;;;;;;;;;;;27.20;34.66;100158.28;5077027;28;1059;-28
2023/10/15 08:57:39;;;;;;;;;;;;;;;27.37;34.92;100156.09;5077838;28;1016;-27
2023/10/15 09:00:05;;;;;;;;;;;;;;;27.10;35.45;100159.47;5060247;28;1226;-26
2023/10/15 09:02:30;;;;;;;;;;;;;;;27.33;35.22;100162.94;5059895;28;1075;-27
2023/10/15 09:04:56;;;;;;;;;;;;;;;26.94;34.83;100154.34;5077620;28;1106;-31
2023/10/15 09:07:21;;;;;;;;;;;;;;;26.85;32.79;100153.66;5059806;28;1126;-26
2023/10/15 09:09:49;;;;;;;;;;;;;;;26.41;33.01;100148.28;5057567;28;1218;-28
2023/10/15 09:12:14;;;;;;;;;;;;;;;27.25;34.50;100153.97;5077278;28;1914;-29
2023/10/15 09:14:40;;;;;;;;;;;;;;;27.43;34.90;100144.50;5077472;28;1060;-31
2023/10/15 09:17:09;;;;;;;;;;;;;;;27.31;34.88;100138.81;5085693;28;1018;-35
2023/10/15 09:19:35;;;;;;;;;;;;;;;27.57;35.01;100142.72;5078233;28;1039;-24
2023/10/15 09:22:01;;;;;;;;;;;;;;;27.44;35.40;100137.25;5077701;28;1060;-23
2023/10/15 09:24:27;;;;;;;;;;;;;;;27.48;35.63;100133.94;5069505;28;1226;-25
2023/10/15 09:26:53;;;;;;;;;;;;;;;27.32;35.93;100127.00;5077174;28;1032;-23
2023/10/15 09:29:19;;;;;;;;;;;;;;;27.31;36.08;100129.91;5068816;28;1035;-23
2023/10/15 09:31:45;;;;;;;;;;;;;;;27.57;36.07;100131.06;5076539;28;1910;-23
2023/10/15 09:34:11;;;;;;;;;;;;;;;27.63;35.64;100131.09;5077312;28;1066;-23
2023/10/15 09:36:38;;;;;;;;;;;;;;;27.49;35.90;100122.09;5066338;28;1111;-23
2023/10/15 09:39:12;;;;;;;;;;;;;;;27.60;36.07;100115.28;5077468;28;1101;-24
2023/10/15 09:41:40;;;;;;;;;;;;;;;27.60;36.56;100114.44;5061454;28;1031;-25
2023/10/15 09:44:06;;;;;;;;;;;;;;;27.43;36.96;100112.09;5076833;28;1135;-24
2023/10/15 09:46:32;;;;;;;;;;;;;;;27.54;36.69;100107.16;5051315;28;1126;-23
2023/10/15 09:48:59;;;;;;;;;;;;;;;27.55;36.51;100101.53;5053838;28;983;-22
2023/10/15 09:51:24;;;;;;;;;;;;;;;27.69;36.71;100099.78;5076824;28;1984;-25
2023/10/15 09:53:50;;;;;;;;;;;;;;;27.87;36.40;100092.94;5059099;28;1130;-25
2023/10/15 09:56:17;;;;;;;;;;;;;;;27.87;36.48;100095.66;5058402;28;1048;-23
2023/10/15 09:58:43;;;;;;;;;;;;;;;27.86;36.67;100091.28;5059671;28;1067;-23
2023/10/15 10:01:25;;;;;;;;;;;;;;;27.85;36.54;100095.00;5077194;28;1072;-24
2023/10/15 10:04:03;;;;;;;;;;;;;;;27.73;36.55;100092.91;5059776;28;1029;-23
2023/10/15 10:06:47;;;;;;;;;;;;;;;27.77;36.56;100089.78;5064073;28;977;-23
2023/10/15 10:09:21;;;;;;;;;;;;;;;27.82;36.01;100084.63;5062489;28;1237;-24
2023/10/15 10:11:51;;;;;;;;;;;;;;;28.09;35.69;100082.78;5070753;28;1927;-23
2023/10/15 10:14:33;;;;;;;;;;;;;;;27.99;35.35;100074.25;5075537;28;890;-23
2023/10/15 10:16:59;;;;;;;;;;;;;;;27.97;35.34;100069.06;5056518;28;898;-23
2023/10/15 10:19:26;;;;;;;;;;;;;;;28.02;35.19;100062.19;5077009;28;1068;-24
2023/10/15 10:21:52;;;;;;;;;;;;;;;28.01;35.01;100068.66;5076687;28;1062;-25
2023/10/15 10:24:17;;;;;;;;;;;;;;;28.03;34.71;100063.88;5076306;28;1032;-23
2023/10/15 10:26:44;;;;;;;;;;;;;;;28.16;34.67;100063.06;5076001;28;1595;-23
2023/10/15 10:29:12;;;;;;;;;;;;;;;28.27;34.38;100069.69;5057989;28;1543;-24
2023/10/15 10:31:39;;;;;;;;;;;;;;;28.28;34.55;100058.69;5045495;28;1981;-24
2023/10/15 10:34:05;;;;;;;;;;;;;;;28.25;34.75;100056.38;5076470;28;1146;-23
2023/10/15 10:36:31;;;;;;;;;;;;;;;27.99;34.96;100052.63;5072578;28;1098;-23
2023/10/15 10:38:57;;;;;;;;;;;;;;;28.04;35.08;100052.00;5046712;28;1276;-23
2023/10/15 10:41:30;;;;;;;;;;;;;;;28.03;35.01;100042.25;5076208;28;1117;-24
2023/10/15 10:43:58;;;;;;;;;;;;;;;27.97;34.99;100041.19;5076283;28;1043;-23
2023/10/15 10:46:24;;;;;;;;;;;;;;;27.94;34.86;100042.44;5076167;28;1119;-23
2023/10/15 10:49:13;;;;;;;;;;;;;;;27.88;34.95;100035.13;5076357;28;1159;-23
2023/10/15 10:51:40;;;;;;;;;;;;;;;27.94;34.88;100031.63;5075970;28;1915;-23
2023/10/15 10:54:05;;;;;;;;;;;;;;;27.83;34.85;100027.66;5075760;28;1086;-23
2023/10/15 10:56:40;;;;;;;;;;;;;;;27.91;34.90;100015.00;5063139;28;1090;-22
2023/10/15 10:59:09;;;;;;;;;;;;;;;27.90;35.03;100016.00;5075795;28;1062;-22
2023/10/15 11:01:41;;;;;;;;;;;;;;;27.94;34.89;100007.31;5066211;28;1454;-21
2023/10/15 11:04:07;;;;;;;;;;;;;;;27.73;35.42;100011.00;5055377;28;1263;-22
2023/10/15 11:06:33;;;;;;;;;;;;;;;27.70;35.42;100012.25;5070910;28;1032;-22
2023/10/15 11:09:00;;;;;;;;;;;;;;;27.78;35.22;100008.53;5068327;28;1206;-22
2023/10/15 11:11:26;;;;;;;;;;;;;;;27.73;35.25;100014.53;5069136;28;915;-22
2023/10/15 11:13:51;;;;;;;;;;;;;;;27.87;34.78;100011.88;5076466;28;1906;-22
2023/10/15 11:16:17;;;;;;;;;;;;;;;27.72;35.33;100012.88;5057859;28;1220;-22
2023/10/15 11:18:45;;;;;;;;;;;;;;;27.67;35.20;100012.63;5077002;28;1174;-22
2023/10/15 11:21:11;;;;;;;;;;;;;;;27.90;34.75;100003.34;5087125;28;969;-22
2023/10/15 11:23:38;;;;;;;;;;;;;;;27.96;34.92;100002.50;5063045;28;1104;-24
2023/10/15 11:26:04;;;;;;;;;;;;;;;27.91;34.59;100013.09;5073384;28;1206;-22
2023/10/15 11:28:29;;;;;;;;;;;;;;;27.97;34.69;100006.88;5046053;28;1031;-24
2023/10/15 11:30:55;;;;;;;;;;;;;;;27.72;35.39;100015.59;5057398;28;1120;-23
2023/10/15 11:33:21;;;;;;;;;;;;;;;27.63;35.40;100014.91;5076950;28;1883;-22
2023/10/15 11:35:51;;;;;;;;;;;;;;;27.56;35.92;100007.84;5059294;28;1068;-24
2023/10/15 11:38:16;;;;;;;;;;;;;;;27.48;35.81;100014.25;5072797;28;1020;-25
2023/10/15 11:40:45;;;;;;;;;;;;;;;27.47;36.04;100010.72;5066276;28;996;-25
2023/10/15 11:43:20;;;;;;;;;;;;;;;27.42;36.27;100010.50;5079035;28;1031;-25
2023/10/15 11:45:45;;;;;;;;;;;;;;;27.62;36.01;100013.25;5079104;28;888;-24
2023/10/15 11:48:14;;;;;;;;;;;;;;;27.46;36.05;100011.75;5078545;28;1050;-25
2023/10/15 11:50:40;;;;;;;;;;;;;;;27.62;35.70;100002.44;5079158;28;1263;-24
2023/10/15 11:53:21;;;;;;;;;;;;;;;27.67;35.89;100004.53;5079380;28;1905;-24
2023/10/15 11:55:52;;;;;;;;;;;;;;;27.50;36.41;99998.66;5079269;28;1211;-26
2023/10/15 11:58:23;;;;;;;;;;;;;;;27.75;35.73;100004.38;5079013;28;1116;-25
2023/10/15 12:00:49;;;;;;;;;;;;;;;27.56;36.22;100000.53;5078858;28;1051;-26
2023/10/15 12:03:16;;;;;;;;;;;;;;;27.64;36.12;99999.53;5050575;28;1056;-25
2023/10/15 12:05:42;;;;;;;;;;;;;;;27.54;36.46;99991.84;5069513;28;1051;-24
2023/10/15 12:08:08;;;;;;;;;;;;;;;27.60;36.26;99992.88;5072945;28;1116;-25
2023/10/15 12:10:33;;;;;;;;;;;;;;;27.68;35.96;99999.94;5073015;28;939;-24
2023/10/15 12:12:59;;;;;;;;;;;;;;;27.68;36.16;99991.84;5061208;28;1926;-24
2023/10/15 12:15:25;;;;;;;;;;;;;;;27.72;36.14;99993.97;5078986;28;1214;-26
2023/10/15 12:17:51;;;;;;;;;;;;;;;27.57;36.62;99993.28;5078618;28;1082;-24
2023/10/15 12:20:17;;;;;;;;;;;;;;;27.60;36.46;99982.91;5078958;28;1166;-23
2023/10/15 12:22:43;;;;;;;;;;;;;;;27.65;36.33;99982.28;5079008;28;895;-26
2023/10/15 12:25:09;;;;;;;;;;;;;;;27.74;36.38;99978.38;5078282;28;1071;-24
2023/10/15 12:27:34;;;;;;;;;;;;;;;27.77;36.07;99977.13;5078655;28;1031;-23
2023/10/15 12:30:04;;;;;;;;;;;;;;;27.59;36.68;99983.09;5078587;28;1123;-26
2023/10/15 12:32:29;;;;;;;;;;;;;;;27.55;36.91;99987.25;5078437;28;1914;-27
2023/10/15 12:34:55;;;;;;;;;;;;;;;27.59;36.61;99988.50;5078670;28;1055;-24
2023/10/15 12:37:24;;;;;;;;;;;;;;;27.50;36.67;99950.03;5086755;28;1056;-24
2023/10/15 12:39:52;;;;;;;;;;;;;;;27.65;36.93;99984.97;5082427;28;1035;-27
2023/10/15 12:42:18;;;;;;;;;;;;;;;27.68;36.81;99976.50;5078308;28;1035;-29
2023/10/15 12:44:46;;;;;;;;;;;;;;;27.75;36.68;99984.59;5076848;28;1122;-27
2023/10/15 12:47:12;;;;;;;;;;;;;;;27.62;37.00;99980.84;5069375;28;1039;-25
2023/10/15 12:49:37;;;;;;;;;;;;;;;27.60;37.31;99980.19;5073815;28;1094;-26
2023/10/15 12:52:03;;;;;;;;;;;;;;;27.70;36.98;99982.53;5078196;28;1918;-26
2023/10/15 12:54:29;;;;;;;;;;;;;;;27.65;36.96;99984.97;5078297;28;1206;-25
2023/10/15 12:56:55;;;;;;;;;;;;;;;27.68;37.33;99981.03;5077723;28;1055;-24
2023/10/15 12:59:21;;;;;;;;;;;;;;;27.66;37.37;99983.94;5078134;28;1120;-23
2023/10/15 13:01:47;;;;;;;;;;;;;;;27.83;36.93;99978.16;5077739;28;1055;-25
2023/10/15 13:04:12;;;;;;;;;;;;;;;27.75;37.58;99980.06;5077646;28;1042;-28